createdAt,value
2022-10-18T00:01:53.761Z,5.67
2022-10-18T00:04:20.278Z,5.70
2022-10-18T00:06:46.836Z,6.27
2022-10-18T00:09:13.993Z,6.00
2022-10-18T00:11:40.985Z,5.90
2022-10-18T00:14:07.793Z,6.23
2022-10-18T00:16:34.309Z,6.23
2022-10-18T00:19:01.083Z,6.37
2022-10-18T00:21:27.588Z,5.60
2022-10-18T00:23:54.274Z,6.33
2022-10-18T00:26:26.384Z,6.10
2022-10-18T00:28:57.492Z,6.13
2022-10-18T00:31:29.714Z,5.67
2022-10-18T00:33:58.935Z,5.70
2022-10-18T00:36:26.557Z,5.33
2022-10-18T00:38:53.425Z,5.90
2022-10-18T00:41:22.615Z,5.67
2022-10-18T00:44:04.852Z,5.30
2022-10-18T00:46:38.090Z,5.57
2022-10-18T00:49:12.930Z,5.87
2022-10-18T00:51:53.548Z,6.33
2022-10-18T00:54:20.768Z,5.43
2022-10-18T00:56:47.286Z,6.40
2022-10-18T00:59:15.991Z,5.57
2022-10-18T01:01:42.677Z,5.60
2022-10-18T01:04:09.281Z,5.70
2022-10-18T01:06:49.784Z,5.60
2022-10-18T01:09:28.119Z,5.70
2022-10-18T01:12:03.371Z,5.43
2022-10-18T01:14:49.974Z,5.97
2022-10-18T01:17:50.242Z,6.37
2022-10-18T01:20:54.303Z,5.73
2022-10-18T01:23:48.636Z,6.10
2022-10-18T01:26:48.132Z,5.77
2022-10-18T01:29:59.351Z,6.00
2022-10-18T01:32:36.952Z,6.00
2022-10-18T01:35:09.421Z,5.80
2022-10-18T01:37:37.651Z,6.20
2022-10-18T01:40:07.020Z,5.63
2022-10-18T01:42:34.619Z,6.13
2022-10-18T01:45:02.963Z,5.93
2022-10-18T01:47:30.943Z,5.83
2022-10-18T01:50:03.502Z,6.10
2022-10-18T01:52:31.263Z,5.63
2022-10-18T01:55:00.469Z,5.70
2022-10-18T01:57:39.208Z,5.50
2022-10-18T02:00:15.297Z,5.80
2022-10-18T02:02:53.753Z,6.27
2022-10-18T02:05:52.178Z,6.90
2022-10-18T02:08:30.809Z,6.30
2022-10-18T02:11:03.319Z,6.70
2022-10-18T02:13:36.769Z,6.60
2022-10-18T02:16:11.500Z,6.57
2022-10-18T02:18:45.482Z,6.53
2022-10-18T02:21:15.718Z,6.90
2022-10-18T02:23:44.915Z,7.17
2022-10-18T02:26:12.289Z,7.13
2022-10-18T02:28:39.159Z,6.50
2022-10-18T02:31:14.794Z,6.03
2022-10-18T02:33:58.010Z,6.13
2022-10-18T02:36:40.753Z,6.47
2022-10-18T02:39:14.428Z,6.17
2022-10-18T02:41:41.986Z,6.00
2022-10-18T02:44:08.558Z,5.80
2022-10-18T02:46:35.418Z,6.10
2022-10-18T02:49:01.908Z,5.60
2022-10-18T02:51:28.475Z,5.50
2022-10-18T02:53:54.971Z,6.00
2022-10-18T02:56:21.520Z,5.57
2022-10-18T02:58:48.117Z,6.13
2022-10-18T03:01:14.600Z,6.10
2022-10-18T03:03:41.202Z,5.87
2022-10-18T03:06:07.694Z,5.60
2022-10-18T03:08:34.187Z,5.57
2022-10-18T03:11:00.695Z,5.77
2022-10-18T03:13:27.199Z,6.77
2022-10-18T03:15:53.705Z,7.03
2022-10-18T03:18:20.257Z,6.57
2022-10-18T03:20:46.755Z,7.20
2022-10-18T03:23:13.232Z,7.33
2022-10-18T03:25:41.659Z,7.80
2022-10-18T03:28:10.986Z,7.10
2022-10-18T03:30:38.919Z,6.90
2022-10-18T03:33:06.518Z,7.00
2022-10-18T03:35:33.064Z,7.20
2022-10-18T03:37:59.543Z,7.43
2022-10-18T03:40:26.062Z,6.80
2022-10-18T03:42:52.574Z,8.13
2022-10-18T03:45:19.077Z,7.33
2022-10-18T03:47:45.618Z,6.77
2022-10-18T03:50:12.219Z,6.80
2022-10-18T03:52:38.836Z,7.53
2022-10-18T03:55:06.058Z,7.80
2022-10-18T03:57:32.587Z,7.07
2022-10-18T03:59:59.212Z,7.87
2022-10-18T04:02:25.846Z,8.00
2022-10-18T04:04:52.624Z,7.77
2022-10-18T04:07:19.135Z,7.73
2022-10-18T04:09:45.588Z,7.13
2022-10-18T04:12:12.231Z,7.10
2022-10-18T04:14:38.708Z,7.50
2022-10-18T04:17:05.221Z,6.83
2022-10-18T04:19:31.800Z,7.63
2022-10-18T04:21:58.391Z,7.00
2022-10-18T04:24:24.987Z,6.83
2022-10-18T04:26:51.564Z,7.27
2022-10-18T04:29:18.084Z,6.97
2022-10-18T04:31:44.593Z,6.93
2022-10-18T04:34:11.301Z,6.97
2022-10-18T04:36:37.794Z,7.90
2022-10-18T04:39:04.301Z,6.33
2022-10-18T04:41:30.767Z,7.50
2022-10-18T04:43:57.250Z,6.90
2022-10-18T04:46:23.749Z,6.50
2022-10-18T04:48:50.200Z,6.10
2022-10-18T04:51:16.691Z,6.33
2022-10-18T04:53:43.223Z,7.73
2022-10-18T04:56:09.692Z,6.87
2022-10-18T04:58:36.314Z,7.00
2022-10-18T05:01:06.753Z,6.93
2022-10-18T05:03:34.014Z,6.50
2022-10-18T05:06:02.546Z,7.57
2022-10-18T05:08:31.127Z,7.23
2022-10-18T05:10:57.743Z,6.77
2022-10-18T05:13:24.444Z,6.60
2022-10-18T05:15:51.096Z,6.40
2022-10-18T05:18:17.733Z,7.00
2022-10-18T05:20:44.226Z,6.90
2022-10-18T05:23:10.909Z,6.63
2022-10-18T05:25:42.604Z,6.53
2022-10-18T05:28:34.105Z,6.23
2022-10-18T05:31:01.254Z,6.97
2022-10-18T05:33:27.875Z,7.47
2022-10-18T05:35:54.637Z,7.20
2022-10-18T05:38:21.601Z,7.40
2022-10-18T05:40:48.166Z,7.83
2022-10-18T05:43:20.080Z,7.40
2022-10-18T05:45:51.979Z,8.90
2022-10-18T05:48:18.721Z,9.10
2022-10-18T05:50:45.862Z,8.80
2022-10-18T05:53:31.558Z,8.10
2022-10-18T05:56:03.081Z,7.53
2022-10-18T05:58:29.756Z,7.80
2022-10-18T06:00:59.817Z,7.93
2022-10-18T06:03:27.621Z,8.27
2022-10-18T06:06:00.190Z,8.20
2022-10-18T06:08:27.213Z,8.17
2022-10-18T06:10:53.930Z,7.90
2022-10-18T06:13:20.394Z,7.63
2022-10-18T06:15:46.894Z,7.00
2022-10-18T06:18:13.373Z,6.83
2022-10-18T06:20:39.857Z,7.87
2022-10-18T06:23:06.541Z,7.47
2022-10-18T06:25:32.989Z,7.73
2022-10-18T06:27:59.466Z,7.93
2022-10-18T06:30:25.945Z,8.87
2022-10-18T06:32:52.398Z,9.83
2022-10-18T06:35:18.870Z,9.80
2022-10-18T06:37:45.331Z,9.53
2022-10-18T06:40:12.054Z,5.30
2022-10-18T06:42:38.526Z,7.40
2022-10-18T06:45:05.733Z,6.67
2022-10-18T06:47:32.187Z,6.70
2022-10-18T06:49:59.626Z,7.23
2022-10-18T06:52:26.329Z,7.83
2022-10-18T06:54:53.772Z,7.63
2022-10-18T06:57:21.044Z,6.90
2022-10-18T06:59:47.845Z,7.60
2022-10-18T07:02:17.150Z,7.30
2022-10-18T07:04:43.930Z,7.97
2022-10-18T07:07:10.570Z,8.23
2022-10-18T07:09:37.212Z,9.40
2022-10-18T07:12:03.934Z,9.13
2022-10-18T07:14:30.434Z,9.00
2022-10-18T07:16:59.502Z,9.57
2022-10-18T07:19:26.094Z,8.87
2022-10-18T07:21:52.653Z,8.40
2022-10-18T07:24:19.131Z,8.97
2022-10-18T07:26:45.596Z,8.87
2022-10-18T07:29:13.118Z,8.60
2022-10-18T07:31:40.745Z,8.50
2022-10-18T07:34:10.524Z,9.33
2022-10-18T07:36:37.157Z,8.40
2022-10-18T07:39:04.671Z,8.37
2022-10-18T07:41:33.490Z,8.00
2022-10-18T07:44:00.980Z,8.00
2022-10-18T07:46:27.494Z,8.10
2022-10-18T07:48:55.251Z,8.47
2022-10-18T07:51:22.279Z,8.40
2022-10-18T07:53:48.896Z,8.03
2022-10-18T07:56:21.050Z,8.03
2022-10-18T07:58:53.538Z,8.27
2022-10-18T08:01:22.315Z,7.80
2022-10-18T08:03:49.182Z,8.00
2022-10-18T08:06:18.460Z,7.23
2022-10-18T08:08:45.903Z,5.73
2022-10-18T08:11:31.134Z,4.57
2022-10-18T08:13:57.758Z,7.30
2022-10-18T08:16:27.542Z,8.80
2022-10-18T08:18:54.877Z,7.63
2022-10-18T08:21:21.745Z,7.53
2022-10-18T08:23:48.973Z,8.47
2022-10-18T08:26:20.840Z,9.37
2022-10-18T08:28:54.153Z,9.73
2022-10-18T08:31:25.538Z,10.00
2022-10-18T08:33:52.033Z,9.80
2022-10-18T08:36:19.356Z,10.30
2022-10-18T08:38:46.038Z,10.40
2022-10-18T08:41:34.091Z,11.53
2022-10-18T08:44:27.330Z,12.37
2022-10-18T08:47:05.647Z,11.63
2022-10-18T08:49:44.155Z,12.03
2022-10-18T08:52:34.696Z,13.33
2022-10-18T08:55:10.171Z,12.97
2022-10-18T08:57:36.658Z,12.53
2022-10-18T09:00:21.555Z,12.43
2022-10-18T09:02:56.998Z,13.03
2022-10-18T09:05:54.517Z,12.50
2022-10-18T09:08:42.084Z,13.50
2022-10-18T09:12:02.006Z,13.53
2022-10-18T09:14:31.573Z,12.57
2022-10-18T09:17:13.666Z,11.83
2022-10-18T09:20:06.938Z,12.23
2022-10-18T09:22:53.074Z,12.00
2022-10-18T09:25:29.808Z,11.33
2022-10-18T09:28:17.713Z,11.17
2022-10-18T09:31:08.396Z,9.33
2022-10-18T09:33:59.538Z,9.23
2022-10-18T09:36:33.601Z,10.20
2022-10-18T09:39:05.167Z,8.73
2022-10-18T09:41:53.271Z,7.07
2022-10-18T09:44:27.070Z,5.43
2022-10-18T09:47:05.497Z,5.70
2022-10-18T09:49:40.275Z,5.17
2022-10-18T09:52:13.954Z,4.93
2022-10-18T09:54:47.776Z,5.13
2022-10-18T09:57:32.256Z,4.70
2022-10-18T10:00:01.537Z,5.43
2022-10-18T10:02:28.136Z,5.23
2022-10-18T10:04:55.678Z,4.93
2022-10-18T10:07:35.149Z,4.67
2022-10-18T10:10:13.932Z,5.13
2022-10-18T10:12:41.037Z,4.87
2022-10-18T10:15:18.854Z,5.53
2022-10-18T10:18:07.189Z,5.37
2022-10-18T10:20:42.030Z,3.90
2022-10-18T10:23:44.077Z,3.67
2022-10-18T10:26:38.791Z,3.10
2022-10-18T10:29:48.255Z,2.67
2022-10-18T10:32:17.389Z,2.20
2022-10-18T10:34:45.005Z,2.23
2022-10-18T10:37:33.542Z,2.30
2022-10-18T10:40:17.946Z,2.10
2022-10-18T10:43:08.825Z,1.80
2022-10-18T10:46:05.928Z,1.70
2022-10-18T10:48:47.566Z,1.60
2022-10-18T10:51:16.033Z,1.60
2022-10-18T10:54:00.656Z,1.30
2022-10-18T10:56:31.928Z,1.20
2022-10-18T10:59:08.322Z,1.40
2022-10-18T11:01:35.006Z,1.30
2022-10-18T11:04:21.826Z,1.10
2022-10-18T11:07:04.359Z,1.23
2022-10-18T11:09:41.794Z,1.03
2022-10-18T11:12:22.518Z,1.00
2022-10-18T11:14:57.426Z,1.10
2022-10-18T11:17:34.346Z,1.10
2022-10-18T11:20:07.110Z,0.97
2022-10-18T11:22:40.663Z,1.20
2022-10-18T11:25:13.744Z,1.13
2022-10-18T11:27:58.980Z,1.00
2022-10-18T11:30:53.450Z,1.30
2022-10-18T11:34:07.103Z,1.10
2022-10-18T11:36:45.365Z,1.20
2022-10-18T11:39:47.305Z,1.10
2022-10-18T11:42:29.061Z,1.10
2022-10-18T11:45:10.751Z,1.10
2022-10-18T11:47:53.681Z,1.10
2022-10-18T11:50:48.429Z,1.00
2022-10-18T11:53:21.751Z,1.00
2022-10-18T11:56:30.128Z,1.00
2022-10-18T11:59:19.785Z,0.97
2022-10-18T12:02:18.443Z,0.80
2022-10-18T12:04:59.847Z,0.83
2022-10-18T12:07:45.897Z,1.00
2022-10-18T12:10:26.218Z,1.00
2022-10-18T12:13:08.049Z,0.90
2022-10-18T12:15:39.347Z,0.80
2022-10-18T12:18:13.229Z,0.77
2022-10-18T12:20:53.800Z,0.60
2022-10-18T12:23:33.335Z,0.70
2022-10-18T12:26:03.542Z,0.60
2022-10-18T12:28:32.913Z,0.80
2022-10-18T12:31:08.498Z,0.70
2022-10-18T12:33:40.457Z,0.80
2022-10-18T12:36:22.094Z,0.50
2022-10-18T12:38:54.366Z,0.60
2022-10-18T12:41:25.357Z,0.70
2022-10-18T12:44:00.482Z,0.60
2022-10-18T12:46:45.402Z,0.70
2022-10-18T12:49:14.629Z,0.60
2022-10-18T12:51:58.011Z,0.60
2022-10-18T12:54:36.451Z,0.60
2022-10-18T12:57:06.682Z,0.50
2022-10-18T12:59:33.087Z,0.50
2022-10-18T13:01:59.557Z,0.50
2022-10-18T13:04:28.879Z,0.53
2022-10-18T13:07:21.637Z,0.50
2022-10-18T13:10:23.090Z,0.57
2022-10-18T13:13:39.296Z,0.50
2022-10-18T13:16:26.478Z,0.40
2022-10-18T13:18:57.134Z,0.50
2022-10-18T13:21:40.266Z,0.50
2022-10-18T13:24:24.256Z,0.50
2022-10-18T13:27:24.478Z,0.40
2022-10-18T13:30:41.276Z,0.50
2022-10-18T13:33:30.639Z,0.40
2022-10-18T13:36:21.645Z,0.40
2022-10-18T13:38:55.741Z,0.40
2022-10-18T13:41:49.332Z,0.33
2022-10-18T13:44:31.789Z,0.30
2022-10-18T13:46:58.206Z,0.40
2022-10-18T13:49:30.469Z,0.70
2022-10-18T13:52:38.125Z,0.60
2022-10-18T13:55:29.194Z,0.90
2022-10-18T13:58:25.652Z,0.97
2022-10-18T14:01:22.789Z,0.70
2022-10-18T14:04:13.970Z,0.70
2022-10-18T14:06:43.603Z,0.70
2022-10-18T14:09:26.296Z,0.70
2022-10-18T14:12:28.410Z,0.60
2022-10-18T14:15:05.720Z,0.90
2022-10-18T14:17:49.299Z,0.47
2022-10-18T14:20:49.408Z,1.10
2022-10-18T14:23:29.173Z,0.80
2022-10-18T14:26:16.582Z,0.50
2022-10-18T14:29:00.489Z,0.80
2022-10-18T14:31:27.492Z,1.00
2022-10-18T14:33:58.434Z,0.70
2022-10-18T14:36:29.461Z,0.60
2022-10-18T14:39:07.274Z,0.50
2022-10-18T14:41:46.442Z,0.70
2022-10-18T14:44:15.890Z,0.40
2022-10-18T14:46:49.424Z,0.40
2022-10-18T14:49:17.108Z,0.40
2022-10-18T14:51:46.417Z,0.40
2022-10-18T14:54:36.019Z,0.43
2022-10-18T14:57:04.119Z,0.50
2022-10-18T14:59:44.277Z,0.50
2022-10-18T15:02:31.102Z,0.70
2022-10-18T15:05:17.373Z,0.40
2022-10-18T15:07:44.712Z,0.47
2022-10-18T15:10:17.749Z,0.50
2022-10-18T15:13:08.375Z,0.50
2022-10-18T15:15:33.657Z,0.43
2022-10-18T15:18:01.680Z,0.60
2022-10-18T15:20:31.918Z,0.60
2022-10-18T15:23:24.537Z,0.80
2022-10-18T15:25:59.123Z,0.90
2022-10-18T15:28:38.001Z,1.60
2022-10-18T15:31:05.165Z,1.50
2022-10-18T15:33:35.769Z,1.43
2022-10-18T15:36:11.485Z,1.40
2022-10-18T15:38:38.744Z,1.33
2022-10-18T15:41:37.518Z,1.37
2022-10-18T15:44:17.975Z,1.70
2022-10-18T15:46:44.528Z,1.83
2022-10-18T15:49:46.224Z,2.20
2022-10-18T15:52:21.768Z,2.07
2022-10-18T15:57:19.999Z,2.67
2022-10-18T15:59:53.817Z,2.67
2022-10-18T16:02:20.733Z,2.50
2022-10-18T16:04:47.888Z,2.90
2022-10-18T16:07:14.468Z,2.70
2022-10-18T16:09:41.003Z,2.30
2022-10-18T16:12:07.479Z,1.90
2022-10-18T16:14:34.010Z,1.90
2022-10-18T16:17:03.803Z,1.53
2022-10-18T16:19:31.930Z,1.60
2022-10-18T16:22:03.637Z,1.60
2022-10-18T16:24:37.417Z,1.70
2022-10-18T16:27:07.289Z,2.27
2022-10-18T16:29:33.880Z,1.97
2022-10-18T16:32:01.121Z,1.67
2022-10-18T16:34:27.706Z,1.43
2022-10-18T16:36:55.225Z,2.53
2022-10-18T16:39:22.668Z,3.70
2022-10-18T16:41:49.740Z,1.70
2022-10-18T16:44:17.124Z,1.50
2022-10-18T16:46:43.946Z,2.13
2022-10-18T16:49:24.997Z,2.07
2022-10-18T16:51:55.248Z,2.10
2022-10-18T16:54:22.897Z,1.70
2022-10-18T16:56:50.137Z,1.67
2022-10-18T16:59:31.110Z,2.10
2022-10-18T17:01:57.870Z,1.60
2022-10-18T17:04:24.615Z,1.90
2022-10-18T17:06:52.598Z,2.10
2022-10-18T17:09:19.072Z,2.47
2022-10-18T17:11:45.532Z,2.17
2022-10-18T17:14:11.996Z,2.40
2022-10-18T17:16:38.913Z,2.30
2022-10-18T17:19:08.040Z,1.97
2022-10-18T17:21:34.990Z,2.70
2022-10-18T17:24:03.049Z,2.30
2022-10-18T17:26:30.459Z,2.53
2022-10-18T17:29:06.118Z,2.20
2022-10-18T17:31:33.058Z,2.60
2022-10-18T17:34:01.750Z,2.80
2022-10-18T17:36:32.626Z,3.20
2022-10-18T17:38:59.369Z,3.53
2022-10-18T17:41:25.962Z,4.27
2022-10-18T17:43:52.426Z,3.87
2022-10-18T17:46:19.640Z,3.80
2022-10-18T17:48:46.542Z,5.53
2022-10-18T17:51:15.099Z,5.77
2022-10-18T17:53:41.690Z,6.87
2022-10-18T17:56:08.502Z,12.20
2022-10-18T17:58:35.591Z,10.37
2022-10-18T18:01:14.736Z,10.87
2022-10-18T18:03:41.660Z,12.27
2022-10-18T18:06:21.932Z,10.80
2022-10-18T18:08:49.490Z,9.03
2022-10-18T18:11:17.510Z,7.70
2022-10-18T18:13:44.017Z,8.40
2022-10-18T18:16:30.785Z,7.70
2022-10-18T18:18:58.503Z,7.83
2022-10-18T18:21:27.006Z,5.77
2022-10-18T18:23:54.391Z,8.97
2022-10-18T18:26:21.992Z,7.80
2022-10-18T18:28:49.205Z,9.17
2022-10-18T18:31:18.545Z,20.47
2022-10-18T18:33:45.656Z,14.40
2022-10-18T18:36:12.922Z,11.77
2022-10-18T18:38:42.590Z,10.20
2022-10-18T18:41:20.779Z,9.30
2022-10-18T18:43:56.987Z,8.23
2022-10-18T18:46:25.438Z,8.43
2022-10-18T18:48:52.420Z,9.37
2022-10-18T18:51:21.054Z,9.63
2022-10-18T18:53:48.417Z,9.03
2022-10-18T18:56:17.498Z,8.87
2022-10-18T18:58:44.741Z,8.50
2022-10-18T19:01:23.611Z,7.20
2022-10-18T19:03:51.828Z,7.10
2022-10-18T19:06:26.927Z,7.20
2022-10-18T19:09:00.074Z,7.57
2022-10-18T19:11:28.590Z,6.93
2022-10-18T19:13:55.256Z,6.50
2022-10-18T19:16:33.865Z,7.63
2022-10-18T19:19:01.903Z,7.70
2022-10-18T19:21:31.235Z,8.47
2022-10-18T19:23:58.914Z,8.87
2022-10-18T19:26:44.387Z,9.07
2022-10-18T19:29:21.788Z,9.27
2022-10-18T19:31:49.995Z,9.03
2022-10-18T19:34:17.572Z,7.97
2022-10-18T19:36:45.896Z,8.20
2022-10-18T19:39:18.285Z,7.83
2022-10-18T19:41:46.552Z,7.30
2022-10-18T19:44:15.785Z,6.97
2022-10-18T19:46:42.464Z,8.03
2022-10-18T19:49:09.589Z,8.20
2022-10-18T19:51:39.412Z,6.77
2022-10-18T19:54:07.029Z,7.73
2022-10-18T19:56:36.741Z,8.40
2022-10-18T19:59:03.965Z,7.97
2022-10-18T20:01:30.918Z,8.20
2022-10-18T20:03:57.618Z,9.03
2022-10-18T20:06:24.184Z,8.93
2022-10-18T20:08:53.824Z,8.40
2022-10-18T20:11:23.414Z,8.30
2022-10-18T20:13:50.577Z,7.23
2022-10-18T20:16:25.515Z,5.90
2022-10-18T20:18:59.004Z,5.97
2022-10-18T20:21:27.447Z,5.20
2022-10-18T20:23:54.586Z,4.57
2022-10-18T20:26:21.862Z,4.63
2022-10-18T20:28:56.117Z,4.80
2022-10-18T20:31:25.228Z,6.90
2022-10-18T20:34:02.389Z,8.00
2022-10-18T20:36:31.037Z,9.53
2022-10-18T20:38:57.996Z,9.10
2022-10-18T20:41:29.619Z,9.30
2022-10-18T20:44:00.168Z,9.67
2022-10-18T20:46:29.848Z,8.33
2022-10-18T20:48:56.320Z,8.63
2022-10-18T20:51:23.157Z,8.70
2022-10-18T20:53:49.798Z,8.83
2022-10-18T20:56:22.079Z,8.30
2022-10-18T20:58:51.515Z,8.70
2022-10-18T21:01:20.935Z,10.00
2022-10-18T21:03:49.021Z,17.53
2022-10-18T21:06:23.233Z,19.20
2022-10-18T21:08:58.457Z,16.63
2022-10-18T21:11:26.258Z,17.30
2022-10-18T21:13:54.182Z,14.77
2022-10-18T21:16:21.333Z,12.50
2022-10-18T21:18:48.742Z,12.60
2022-10-18T21:21:18.389Z,11.60
2022-10-18T21:23:45.472Z,9.37
2022-10-18T21:26:18.487Z,8.27
2022-10-18T21:28:45.754Z,8.03
2022-10-18T21:31:18.868Z,8.03
2022-10-18T21:33:46.416Z,9.20
2022-10-18T21:36:14.000Z,9.77
2022-10-18T21:38:45.059Z,9.23
2022-10-18T21:41:13.256Z,17.93
2022-10-18T21:43:42.543Z,14.80
2022-10-18T21:46:10.189Z,4.60
2022-10-18T21:48:37.921Z,8.67
2022-10-18T21:51:08.491Z,8.03
2022-10-18T21:53:36.006Z,7.30
2022-10-18T21:56:06.538Z,6.80
2022-10-18T21:58:33.965Z,6.67
2022-10-18T22:01:00.723Z,7.07
2022-10-18T22:03:27.302Z,7.63
2022-10-18T22:05:58.710Z,7.67
2022-10-18T22:08:25.160Z,8.47
2022-10-18T22:10:51.664Z,8.67
2022-10-18T22:13:18.165Z,9.87
2022-10-18T22:15:44.776Z,9.47
2022-10-18T22:18:11.272Z,9.20
2022-10-18T22:20:37.729Z,8.50
2022-10-18T22:23:04.253Z,8.87
2022-10-18T22:25:30.714Z,7.80
2022-10-18T22:27:57.156Z,8.57
2022-10-18T22:30:23.704Z,8.27
2022-10-18T22:32:50.169Z,9.27
2022-10-18T22:35:16.733Z,8.43
2022-10-18T22:37:43.255Z,7.37
2022-10-18T22:40:10.276Z,8.03
2022-10-18T22:42:36.768Z,8.13
2022-10-18T22:45:03.520Z,9.23
2022-10-18T22:47:29.998Z,8.73
2022-10-18T22:49:56.463Z,8.53
2022-10-18T22:52:22.941Z,8.63
2022-10-18T22:54:49.417Z,7.77
2022-10-18T22:57:15.877Z,7.67
2022-10-18T22:59:42.350Z,7.60
2022-10-18T23:02:08.839Z,7.13
2022-10-18T23:04:35.385Z,7.60
2022-10-18T23:07:01.834Z,6.93
2022-10-18T23:09:28.413Z,6.13
2022-10-18T23:11:54.893Z,5.47
2022-10-18T23:14:21.335Z,5.33
2022-10-18T23:16:47.773Z,5.80
2022-10-18T23:19:15.475Z,4.80
2022-10-18T23:21:42.282Z,4.37
2022-10-18T23:24:08.745Z,4.53
2022-10-18T23:26:35.189Z,4.10
2022-10-18T23:29:01.672Z,4.37
2022-10-18T23:31:31.185Z,4.23
2022-10-18T23:34:00.332Z,3.57
2022-10-18T23:36:27.365Z,3.90
2022-10-18T23:38:53.837Z,4.23
2022-10-18T23:41:20.639Z,3.27
2022-10-18T23:43:47.529Z,3.33
2022-10-18T23:46:15.676Z,4.17
2022-10-18T23:48:42.545Z,4.33
2022-10-18T23:51:09.946Z,4.43
2022-10-18T23:53:37.193Z,3.67
2022-10-18T23:56:09.222Z,4.33
2022-10-18T23:58:37.258Z,3.90
